Time;durP1;ratioP1;P1;durP2;ratioP2;P2;SDS_P1;SDS_P2;PMS_P1;PMS_P2;Temp;Humidity;BMP_temperature;BMP_pressure;BME280_temperature;BME280_humidity;BME280_pressure;Samples;Min_cycle;Max_cycle;Signal;HPM_P1;HPM_P2
2024/01/03 00:00:44;;;;;;;6.85;1.25;;;;;;;;;;5078593;28;20495;-84
2024/01/03 00:03:31;;;;;;;7.60;1.35;;;;;;;;;;5093616;28;20063;-82
2024/01/03 00:06:16;;;;;;;6.68;1.30;;;;;;;;;;5093099;28;20439;-85
2024/01/03 00:09:01;;;;;;;10.40;1.50;;;;;;;;;;5091676;28;20044;-83
2024/01/03 00:11:46;;;;;;;6.05;1.38;;;;;;;;;;5092196;28;20403;-83
2024/01/03 00:14:35;;;;;;;10.45;2.17;;;;;;;;;;5080356;28;20048;-83
2024/01/03 00:17:20;;;;;;;10.50;2.10;;;;;;;;;;5086267;28;20081;-83
2024/01/03 00:20:06;;;;;;;6.18;1.65;;;;;;;;;;5077718;28;20066;-83
2024/01/03 00:22:50;;;;;;;12.38;2.22;;;;;;;;;;5084367;28;20050;-82
2024/01/03 00:25:35;;;;;;;10.90;1.80;;;;;;;;;;5092966;28;20109;-82
2024/01/03 00:28:20;;;;;;;11.68;2.00;;;;;;;;;;5093309;28;20047;-83
2024/01/03 00:31:04;;;;;;;8.02;1.58;;;;;;;;;;5070603;28;20097;-82
2024/01/03 00:33:49;;;;;;;9.20;1.35;;;;;;;;;;5093054;28;20043;-82
2024/01/03 00:36:34;;;;;;;6.50;1.50;;;;;;;;;;5076942;28;20106;-82
2024/01/03 00:39:23;;;;;;;11.90;1.63;;;;;;;;;;5093468;28;20047;-82
2024/01/03 00:42:08;;;;;;;8.38;2.78;;;;;;;;;;5082290;28;20402;-81
2024/01/03 00:44:53;;;;;;;11.88;1.80;;;;;;;;;;5092636;28;20057;-82
2024/01/03 00:47:37;;;;;;;7.15;1.98;;;;;;;;;;5092132;28;20035;-82
2024/01/03 00:50:22;;;;;;;8.30;1.42;;;;;;;;;;5093101;28;20078;-83
2024/01/03 00:53:07;;;;;;;10.27;2.00;;;;;;;;;;5059047;28;20078;-82
2024/01/03 00:55:52;;;;;;;10.80;2.60;;;;;;;;;;5071245;28;20502;-82
2024/01/03 00:58:37;;;;;;;3.13;0.98;;;;;;;;;;5082959;28;20054;-82
2024/01/03 01:01:22;;;;;;;7.38;1.55;;;;;;;;;;5092992;28;20035;-83
2024/01/03 01:04:06;;;;;;;14.70;1.50;;;;;;;;;;5092347;28;20491;-83
2024/01/03 01:06:50;;;;;;;15.68;3.15;;;;;;;;;;5077043;28;20395;-82
2024/01/03 01:09:35;;;;;;;9.25;1.38;;;;;;;;;;5079474;28;20054;-82
2024/01/03 01:12:21;;;;;;;8.45;1.60;;;;;;;;;;5078430;28;20043;-82
2024/01/03 01:15:05;;;;;;;8.07;1.27;;;;;;;;;;5091915;28;20125;-82
2024/01/03 01:17:50;;;;;;;14.27;2.65;;;;;;;;;;5064361;28;20125;-82
2024/01/03 01:20:35;;;;;;;8.75;1.98;;;;;;;;;;5074995;28;20067;-82
2024/01/03 01:23:20;;;;;;;8.57;1.65;;;;;;;;;;5090871;28;20084;-82
2024/01/03 01:26:04;;;;;;;10.82;1.92;;;;;;;;;;5075690;28;20043;-84
2024/01/03 01:28:49;;;;;;;6.70;2.03;;;;;;;;;;5090527;28;20093;-82
2024/01/03 01:31:33;;;;;;;14.65;1.90;;;;;;;;;;5089725;28;20594;-82
2024/01/03 01:34:18;;;;;;;8.38;1.30;;;;;;;;;;5091169;28;20051;-82
2024/01/03 01:37:02;;;;;;;11.38;1.58;;;;;;;;;;5090775;28;20497;-84
2024/01/03 01:39:47;;;;;;;7.03;1.38;;;;;;;;;;5088830;28;20035;-83
2024/01/03 01:42:31;;;;;;;15.45;1.70;;;;;;;;;;5061053;28;20098;-84
2024/01/03 01:45:16;;;;;;;9.77;1.48;;;;;;;;;;5063220;28;20404;-85
2024/01/03 01:48:01;;;;;;;8.00;0.98;;;;;;;;;;5090277;28;20416;-83
2024/01/03 01:50:46;;;;;;;9.10;1.42;;;;;;;;;;5090380;28;20541;-84
2024/01/03 01:53:30;;;;;;;9.77;2.08;;;;;;;;;;5063068;28;20043;-83
2024/01/03 01:56:16;;;;;;;11.05;1.52;;;;;;;;;;5068685;28;20039;-84
2024/01/03 01:59:01;;;;;;;7.03;1.02;;;;;;;;;;5090544;28;20467;-83
2024/01/03 02:01:46;;;;;;;7.57;1.63;;;;;;;;;;5089197;28;20035;-83
2024/01/03 02:04:33;;;;;;;12.32;1.73;;;;;;;;;;5036998;28;1102615;-83
2024/01/03 02:07:18;;;;;;;8.85;1.77;;;;;;;;;;5091781;28;20066;-83
2024/01/03 02:10:03;;;;;;;6.65;1.40;;;;;;;;;;5079143;28;20511;-83
2024/01/03 02:12:47;;;;;;;7.20;1.65;;;;;;;;;;5085708;28;20042;-83
2024/01/03 02:15:32;;;;;;;10.43;2.45;;;;;;;;;;5090821;28;20038;-83
2024/01/03 02:18:17;;;;;;;9.13;1.33;;;;;;;;;;5088008;28;20399;-86
2024/01/03 02:21:02;;;;;;;5.25;1.50;;;;;;;;;;5068550;28;20071;-85
2024/01/03 02:23:46;;;;;;;7.50;1.83;;;;;;;;;;5076152;28;20071;-84
2024/01/03 02:26:31;;;;;;;5.47;1.10;;;;;;;;;;5075993;28;20043;-84
2024/01/03 02:29:15;;;;;;;6.18;1.52;;;;;;;;;;5090223;28;20043;-84
2024/01/03 02:32:00;;;;;;;6.15;1.17;;;;;;;;;;5089544;28;20089;-81
2024/01/03 02:34:44;;;;;;;9.00;1.25;;;;;;;;;;5078167;28;20055;-81
2024/01/03 02:37:29;;;;;;;4.18;1.40;;;;;;;;;;5091727;28;20035;-81
2024/01/03 02:40:13;;;;;;;5.00;1.40;;;;;;;;;;5076903;28;20407;-81
2024/01/03 02:42:58;;;;;;;7.90;1.60;;;;;;;;;;5091296;28;20047;-81
2024/01/03 02:45:42;;;;;;;3.58;1.10;;;;;;;;;;5091693;28;20131;-82
2024/01/03 02:48:27;;;;;;;8.88;1.63;;;;;;;;;;5092183;28;20042;-81
2024/01/03 02:51:18;;;;;;;6.25;1.65;;;;;;;;;;5078571;28;20035;-81
2024/01/03 02:54:04;;;;;;;16.58;1.58;;;;;;;;;;5078023;28;20108;-85
2024/01/03 02:56:50;;;;;;;7.13;1.52;;;;;;;;;;5062168;28;20047;-84
2024/01/03 02:59:34;;;;;;;6.68;1.77;;;;;;;;;;5057875;28;20400;-84
2024/01/03 03:02:19;;;;;;;8.45;1.80;;;;;;;;;;5086164;28;20047;-84
2024/01/03 03:05:04;;;;;;;13.23;1.95;;;;;;;;;;5082139;28;20055;-84
2024/01/03 03:07:49;;;;;;;9.63;1.80;;;;;;;;;;5075454;28;20098;-83
2024/01/03 03:10:33;;;;;;;8.60;1.40;;;;;;;;;;5062320;28;20035;-84
2024/01/03 03:13:17;;;;;;;7.20;1.30;;;;;;;;;;5066724;28;20047;-85
2024/01/03 03:16:02;;;;;;;5.13;1.10;;;;;;;;;;5068829;28;20039;-84
2024/01/03 03:18:46;;;;;;;9.63;1.70;;;;;;;;;;5086187;28;20043;-85
2024/01/03 03:21:31;;;;;;;9.40;1.30;;;;;;;;;;5076700;28;20038;-84
2024/01/03 03:24:16;;;;;;;9.38;1.40;;;;;;;;;;5076418;28;20051;-85
2024/01/03 03:27:01;;;;;;;5.05;1.17;;;;;;;;;;5075468;28;20055;-86
2024/01/03 03:29:45;;;;;;;9.75;1.23;;;;;;;;;;5091796;28;20116;-86
2024/01/03 03:32:30;;;;;;;11.93;2.25;;;;;;;;;;5050812;28;20051;-86
2024/01/03 03:35:14;;;;;;;7.82;1.42;;;;;;;;;;5062756;28;20499;-85
2024/01/03 03:37:59;;;;;;;8.50;2.13;;;;;;;;;;5091148;28;20043;-86
2024/01/03 03:40:43;;;;;;;6.65;1.20;;;;;;;;;;5066784;28;20035;-85
2024/01/03 03:43:28;;;;;;;9.15;1.40;;;;;;;;;;5090958;28;20075;-85
2024/01/03 03:46:12;;;;;;;8.00;2.38;;;;;;;;;;5091133;28;20511;-85
2024/01/03 03:48:57;;;;;;;10.85;1.50;;;;;;;;;;5075878;28;20055;-86
2024/01/03 03:51:42;;;;;;;10.05;1.05;;;;;;;;;;5071471;28;20454;-85
2024/01/03 03:54:26;;;;;;;5.82;1.10;;;;;;;;;;5084335;28;20412;-85
2024/01/03 03:57:11;;;;;;;4.07;0.75;;;;;;;;;;5086952;28;20101;-86
2024/01/03 03:59:55;;;;;;;6.13;1.50;;;;;;;;;;5067872;28;20542;-85
2024/01/03 04:02:40;;;;;;;7.80;1.10;;;;;;;;;;5078396;28;20066;-86
2024/01/03 04:05:24;;;;;;;7.30;1.00;;;;;;;;;;5079540;28;20063;-85
2024/01/03 04:08:09;;;;;;;4.13;1.10;;;;;;;;;;5082358;28;20058;-86
2024/01/03 04:10:53;;;;;;;3.22;0.70;;;;;;;;;;5092106;28;20532;-84
2024/01/03 04:13:39;;;;;;;4.10;0.90;;;;;;;;;;5059323;28;20104;-86
2024/01/03 04:16:23;;;;;;;4.05;0.90;;;;;;;;;;5078985;28;20484;-86
2024/01/03 04:19:08;;;;;;;5.68;0.98;;;;;;;;;;5092664;28;20066;-86
2024/01/03 04:21:52;;;;;;;3.92;0.82;;;;;;;;;;5064901;28;20063;-86
2024/01/03 04:24:37;;;;;;;3.65;1.17;;;;;;;;;;5079391;28;20534;-85
2024/01/03 04:27:22;;;;;;;6.93;1.10;;;;;;;;;;5087528;28;20035;-86
2024/01/03 04:30:07;;;;;;;2.70;0.93;;;;;;;;;;5089023;28;20146;-86
2024/01/03 04:32:51;;;;;;;2.65;0.90;;;;;;;;;;5066904;28;20044;-85
2024/01/03 04:35:36;;;;;;;6.25;0.93;;;;;;;;;;5081555;28;20047;-86
2024/01/03 04:38:20;;;;;;;6.30;1.00;;;;;;;;;;5092520;28;20047;-85
2024/01/03 04:41:05;;;;;;;4.55;1.40;;;;;;;;;;5077713;28;20043;-85
2024/01/03 04:43:49;;;;;;;12.05;1.75;;;;;;;;;;5082407;28;20529;-85
2024/01/03 04:46:34;;;;;;;15.63;2.58;;;;;;;;;;5087893;28;20159;-85
2024/01/03 04:49:18;;;;;;;15.38;2.75;;;;;;;;;;5071591;28;20096;-85
2024/01/03 04:52:03;;;;;;;20.58;2.28;;;;;;;;;;5066500;28;20106;-85
2024/01/03 04:54:48;;;;;;;20.80;3.70;;;;;;;;;;5077175;28;20059;-84
2024/01/03 04:57:35;;;;;;;21.50;3.10;;;;;;;;;;5091420;28;20039;-84
2024/01/03 05:00:20;;;;;;;20.63;2.42;;;;;;;;;;5085800;28;20097;-84
2024/01/03 05:03:05;;;;;;;15.32;3.58;;;;;;;;;;5081013;28;20047;-83
2024/01/03 05:05:49;;;;;;;12.38;2.38;;;;;;;;;;5078362;28;20043;-85
2024/01/03 05:08:34;;;;;;;19.52;3.20;;;;;;;;;;5092731;28;20089;-85
2024/01/03 05:11:18;;;;;;;21.50;3.35;;;;;;;;;;5056797;28;20046;-85
2024/01/03 05:14:03;;;;;;;27.63;3.97;;;;;;;;;;5071827;28;20396;-85
2024/01/03 05:16:47;;;;;;;21.40;3.67;;;;;;;;;;5093715;28;20039;-85
2024/01/03 05:19:32;;;;;;;24.73;3.95;;;;;;;;;;5053632;28;20112;-85
2024/01/03 05:22:16;;;;;;;22.73;3.97;;;;;;;;;;5076592;28;20039;-84
2024/01/03 05:25:01;;;;;;;14.88;3.42;;;;;;;;;;5079841;28;20423;-86
2024/01/03 05:27:46;;;;;;;24.25;3.97;;;;;;;;;;5090442;28;20108;-85
2024/01/03 05:30:30;;;;;;;22.88;3.78;;;;;;;;;;5077303;28;20036;-85
2024/01/03 05:33:15;;;;;;;19.48;3.00;;;;;;;;;;5091888;28;20076;-84
2024/01/03 05:35:59;;;;;;;16.65;2.38;;;;;;;;;;5077720;28;20078;-84
2024/01/03 05:38:44;;;;;;;22.05;2.97;;;;;;;;;;5092219;28;20113;-84
2024/01/03 05:41:28;;;;;;;21.67;3.80;;;;;;;;;;5068471;28;20225;-84
2024/01/03 05:44:13;;;;;;;11.38;1.92;;;;;;;;;;5080895;28;20044;-85
2024/01/03 05:46:58;;;;;;;11.65;2.75;;;;;;;;;;5081523;28;20503;-86
2024/01/03 05:49:42;;;;;;;16.60;2.70;;;;;;;;;;5061867;28;20449;-85
2024/01/03 05:52:27;;;;;;;22.50;3.20;;;;;;;;;;5088762;28;20108;-85
2024/01/03 05:55:11;;;;;;;17.33;2.65;;;;;;;;;;5068556;28;20621;-86
2024/01/03 05:57:56;;;;;;;12.85;2.22;;;;;;;;;;5089912;28;20043;-85
2024/01/03 06:00:40;;;;;;;20.92;2.92;;;;;;;;;;5064351;28;20166;-85
2024/01/03 06:03:25;;;;;;;22.27;2.60;;;;;;;;;;5076077;28;20063;-86
2024/01/03 06:06:09;;;;;;;12.88;3.22;;;;;;;;;;5091816;28;20120;-87
2024/01/03 06:08:54;;;;;;;15.40;2.65;;;;;;;;;;5076836;28;20039;-86
2024/01/03 06:11:39;;;;;;;13.70;3.00;;;;;;;;;;5092726;28;20046;-86
2024/01/03 06:14:23;;;;;;;12.52;2.05;;;;;;;;;;5075921;28;20058;-85
2024/01/03 06:17:08;;;;;;;16.40;2.15;;;;;;;;;;5076381;28;20042;-85
2024/01/03 06:19:52;;;;;;;18.05;2.45;;;;;;;;;;5076948;28;20116;-85
2024/01/03 06:22:37;;;;;;;16.55;2.80;;;;;;;;;;5091601;28;20047;-84
2024/01/03 06:25:21;;;;;;;16.40;2.28;;;;;;;;;;5073326;28;20060;-86
2024/01/03 06:28:06;;;;;;;11.50;2.15;;;;;;;;;;5084350;28;20039;-86
2024/01/03 06:30:50;;;;;;;21.90;3.10;;;;;;;;;;5091631;28;20404;-85
2024/01/03 06:33:35;;;;;;;14.93;2.97;;;;;;;;;;5082000;28;20086;-82
2024/01/03 06:36:39;;;;;;;16.90;3.47;;;;;;;;;;5091041;28;20043;-81
2024/01/03 06:39:26;;;;;;;16.45;2.70;;;;;;;;;;5089659;28;20035;-82
2024/01/03 06:42:11;;;;;;;17.67;2.13;;;;;;;;;;5076281;28;20514;-85
2024/01/03 06:44:55;;;;;;;13.40;1.92;;;;;;;;;;5075685;28;20442;-85
2024/01/03 06:47:44;;;;;;;10.90;2.35;;;;;;;;;;5091234;28;20035;-84
2024/01/03 06:50:29;;;;;;;7.65;1.58;;;;;;;;;;5075447;28;20081;-84
2024/01/03 06:53:13;;;;;;;9.85;1.77;;;;;;;;;;5050922;28;20415;-82
2024/01/03 06:55:58;;;;;;;7.22;1.20;;;;;;;;;;5074121;28;20400;-83
2024/01/03 06:58:43;;;;;;;8.30;1.70;;;;;;;;;;5090855;28;20075;-83
2024/01/03 07:01:27;;;;;;;11.65;2.25;;;;;;;;;;5078560;28;20059;-83
2024/01/03 07:04:12;;;;;;;8.43;1.60;;;;;;;;;;5090678;28;20055;-83
2024/01/03 07:06:57;;;;;;;12.68;2.58;;;;;;;;;;5075661;28;20455;-83
2024/01/03 07:09:41;;;;;;;10.07;1.48;;;;;;;;;;5082089;28;20067;-83
2024/01/03 07:12:26;;;;;;;8.05;1.65;;;;;;;;;;5087057;28;20038;-82
2024/01/03 07:15:17;;;;;;;7.38;1.40;;;;;;;;;;5090876;28;20044;-83
2024/01/03 07:18:02;;;;;;;14.52;2.03;;;;;;;;;;5084562;28;20122;-83
2024/01/03 07:20:46;;;;;;;17.15;2.60;;;;;;;;;;5071082;28;20736;-84
2024/01/03 07:23:31;;;;;;;19.10;2.60;;;;;;;;;;5090245;28;20089;-83
2024/01/03 07:26:15;;;;;;;19.10;2.55;;;;;;;;;;5090643;28;20035;-84
2024/01/03 07:29:00;;;;;;;12.23;3.90;;;;;;;;;;5082174;28;20043;-82
2024/01/03 07:31:45;;;;;;;16.10;2.78;;;;;;;;;;5093063;28;20047;-83
2024/01/03 07:34:31;;;;;;;26.52;3.08;;;;;;;;;;5091501;28;20047;-83
2024/01/03 07:37:15;;;;;;;19.98;3.17;;;;;;;;;;5071448;28;20403;-83
2024/01/03 07:40:00;;;;;;;16.63;3.60;;;;;;;;;;5072631;28;20057;-83
2024/01/03 07:42:45;;;;;;;12.75;2.40;;;;;;;;;;5078393;28;20051;-84
2024/01/03 07:45:29;;;;;;;13.18;2.30;;;;;;;;;;5093622;28;20080;-83
2024/01/03 07:48:14;;;;;;;13.27;2.17;;;;;;;;;;5094250;28;20035;-83
2024/01/03 07:50:58;;;;;;;13.27;2.10;;;;;;;;;;5093822;28;20174;-84
2024/01/03 07:53:43;;;;;;;19.25;3.95;;;;;;;;;;5093816;28;20043;-84
2024/01/03 07:56:27;;;;;;;25.35;5.70;;;;;;;;;;5078258;28;20048;-84
2024/01/03 07:59:12;;;;;;;14.27;2.47;;;;;;;;;;5093975;28;20435;-84
2024/01/03 08:01:57;;;;;;;11.02;2.63;;;;;;;;;;5078573;28;20411;-84
2024/01/03 08:04:42;;;;;;;15.13;2.45;;;;;;;;;;5093419;28;20118;-83
2024/01/03 08:07:26;;;;;;;14.98;2.83;;;;;;;;;;5093687;28;20415;-86
2024/01/03 08:10:11;;;;;;;13.63;2.10;;;;;;;;;;5094323;28;20074;-83
2024/01/03 08:12:56;;;;;;;12.90;2.08;;;;;;;;;;5094185;28;20051;-83
2024/01/03 08:15:41;;;;;;;12.98;2.17;;;;;;;;;;5092815;28;20102;-83
2024/01/03 08:18:26;;;;;;;15.15;2.15;;;;;;;;;;5094121;28;20136;-84
2024/01/03 08:21:11;;;;;;;16.52;1.83;;;;;;;;;;5073964;28;20035;-83
2024/01/03 08:23:56;;;;;;;11.77;2.28;;;;;;;;;;5063036;28;20043;-83
2024/01/03 08:26:40;;;;;;;13.77;2.75;;;;;;;;;;5092660;28;20035;-83
2024/01/03 08:29:24;;;;;;;17.23;2.30;;;;;;;;;;5054867;28;20117;-83
2024/01/03 08:32:09;;;;;;;8.15;1.67;;;;;;;;;;5065060;28;20089;-83
2024/01/03 08:34:54;;;;;;;15.82;2.45;;;;;;;;;;5092600;28;20047;-83
2024/01/03 08:37:38;;;;;;;13.18;3.42;;;;;;;;;;5093101;28;20081;-84
2024/01/03 08:40:23;;;;;;;13.20;2.08;;;;;;;;;;5093643;28;20128;-82
2024/01/03 08:43:07;;;;;;;12.15;2.58;;;;;;;;;;5077097;28;20499;-83
2024/01/03 08:45:52;;;;;;;10.95;2.38;;;;;;;;;;5093269;28;20043;-84
2024/01/03 08:48:37;;;;;;;10.77;1.83;;;;;;;;;;5081627;28;20075;-83
2024/01/03 08:51:23;;;;;;;9.65;2.13;;;;;;;;;;5093065;28;20137;-83
2024/01/03 08:54:08;;;;;;;10.85;1.98;;;;;;;;;;5092909;28;20161;-83
2024/01/03 08:56:53;;;;;;;9.23;1.63;;;;;;;;;;5093000;28;20170;-83
2024/01/03 08:59:37;;;;;;;11.75;1.63;;;;;;;;;;5092925;28;20039;-83
2024/01/03 09:02:22;;;;;;;11.23;2.75;;;;;;;;;;5091667;28;20097;-83
2024/01/03 09:05:06;;;;;;;9.43;1.65;;;;;;;;;;5092999;28;20105;-83
2024/01/03 09:07:51;;;;;;;12.18;2.03;;;;;;;;;;5092021;28;20055;-83
2024/01/03 09:10:36;;;;;;;7.53;1.70;;;;;;;;;;5076873;28;20546;-85
2024/01/03 09:13:20;;;;;;;7.72;2.22;;;;;;;;;;5077076;28;20154;-83
2024/01/03 09:16:05;;;;;;;7.20;1.58;;;;;;;;;;5092153;28;20399;-83
2024/01/03 09:18:50;;;;;;;16.38;2.70;;;;;;;;;;5079244;28;20046;-83
2024/01/03 09:21:35;;;;;;;16.10;2.78;;;;;;;;;;5093023;28;20043;-83
2024/01/03 09:24:19;;;;;;;15.30;2.22;;;;;;;;;;5081090;28;20449;-83
2024/01/03 09:27:04;;;;;;;11.80;2.22;;;;;;;;;;5076791;28;20032;-83
2024/01/03 09:29:49;;;;;;;12.57;2.63;;;;;;;;;;5092143;28;20047;-83
2024/01/03 09:32:34;;;;;;;10.98;2.17;;;;;;;;;;5081049;28;20081;-83
2024/01/03 09:35:18;;;;;;;11.73;2.28;;;;;;;;;;5087811;28;20487;-83
2024/01/03 09:38:03;;;;;;;13.65;2.55;;;;;;;;;;5085818;28;20039;-84
2024/01/03 09:40:47;;;;;;;10.55;2.50;;;;;;;;;;5077080;28;20043;-83
2024/01/03 09:43:33;;;;;;;10.10;2.80;;;;;;;;;;5077021;28;20074;-83
2024/01/03 09:46:17;;;;;;;13.07;2.10;;;;;;;;;;5078688;28;20925;-83
2024/01/03 09:49:02;;;;;;;12.68;2.05;;;;;;;;;;5076595;28;20457;-83
2024/01/03 09:51:47;;;;;;;14.23;2.78;;;;;;;;;;5083710;28;20045;-83
2024/01/03 09:54:33;;;;;;;10.52;1.88;;;;;;;;;;5075781;28;20039;-83
2024/01/03 09:57:21;;;;;;;13.20;2.20;;;;;;;;;;5091813;28;20043;-83
2024/01/03 10:00:07;;;;;;;5.90;1.85;;;;;;;;;;5077162;28;20120;-83
2024/01/03 10:02:51;;;;;;;14.50;3.38;;;;;;;;;;5090163;28;20082;-83
2024/01/03 10:05:36;;;;;;;8.65;2.15;;;;;;;;;;5091752;28;20128;-83
2024/01/03 10:08:20;;;;;;;10.52;1.30;;;;;;;;;;5091864;28;20053;-82
2024/01/03 10:11:31;;;;;;;14.98;1.90;;;;;;;;;;5075377;28;20538;-83
2024/01/03 10:14:21;;;;;;;8.40;1.92;;;;;;;;;;5090597;28;20434;-82
2024/01/03 10:17:09;;;;;;;7.15;1.42;;;;;;;;;;5075813;28;20043;-83
2024/01/03 10:19:54;;;;;;;13.65;2.55;;;;;;;;;;5090890;28;20119;-83
2024/01/03 10:22:39;;;;;;;8.65;2.00;;;;;;;;;;5078802;28;20046;-83
2024/01/03 10:25:24;;;;;;;9.93;2.80;;;;;;;;;;5091491;28;20047;-82
2024/01/03 10:28:09;;;;;;;12.20;1.83;;;;;;;;;;5091182;28;20043;-83
2024/01/03 10:30:54;;;;;;;9.38;1.77;;;;;;;;;;5076113;28;20108;-83
2024/01/03 10:33:39;;;;;;;8.73;2.47;;;;;;;;;;5091127;28;20050;-83
2024/01/03 10:36:23;;;;;;;9.38;1.50;;;;;;;;;;5075651;28;20607;-83
2024/01/03 10:39:13;;;;;;;8.18;1.45;;;;;;;;;;5091104;28;20051;-83
2024/01/03 10:41:58;;;;;;;7.43;1.63;;;;;;;;;;5071113;28;20062;-83
2024/01/03 10:44:43;;;;;;;11.65;1.80;;;;;;;;;;5072126;28;20039;-83
2024/01/03 10:47:28;;;;;;;13.38;2.50;;;;;;;;;;5091485;28;20135;-83
2024/01/03 10:50:13;;;;;;;15.65;1.80;;;;;;;;;;5091654;28;20157;-83
2024/01/03 10:52:58;;;;;;;8.07;1.83;;;;;;;;;;5076962;28;20039;-83
2024/01/03 10:55:43;;;;;;;12.70;2.78;;;;;;;;;;5090790;28;20115;-85
2024/01/03 10:58:28;;;;;;;14.30;2.50;;;;;;;;;;5091300;28;20038;-84
2024/01/03 11:01:30;;;;;;;14.98;2.10;;;;;;;;;;5090144;28;20104;-84
2024/01/03 11:04:30;;;;;;;21.95;5.10;;;;;;;;;;5090213;28;20051;-83
2024/01/03 11:07:30;;;;;;;14.93;2.67;;;;;;;;;;5095181;28;20545;-83
2024/01/03 11:10:33;;;;;;;18.13;2.35;;;;;;;;;;5068225;28;20078;-83
2024/01/03 11:13:34;;;;;;;14.65;2.72;;;;;;;;;;5086154;28;20043;-84
2024/01/03 11:16:33;;;;;;;18.85;3.00;;;;;;;;;;5084007;28;20042;-83
2024/01/03 11:19:26;;;;;;;11.98;2.92;;;;;;;;;;5066030;28;20496;-83
2024/01/03 11:22:11;;;;;;;17.05;3.63;;;;;;;;;;5093904;28;20058;-83
2024/01/03 11:24:56;;;;;;;15.85;3.25;;;;;;;;;;5079382;28;20120;-84
2024/01/03 11:27:41;;;;;;;16.70;3.58;;;;;;;;;;5068549;28;20042;-83
2024/01/03 11:30:44;;;;;;;25.15;3.75;;;;;;;;;;5094485;28;20068;-84
2024/01/03 11:33:31;;;;;;;18.80;4.57;;;;;;;;;;5065063;28;20560;-84
2024/01/03 11:36:35;;;;;;;21.23;3.47;;;;;;;;;;5094524;28;20154;-84
2024/01/03 11:39:36;;;;;;;14.52;2.58;;;;;;;;;;5086459;28;20391;-84
2024/01/03 11:42:24;;;;;;;16.45;3.20;;;;;;;;;;5074584;28;20458;-84
2024/01/03 11:45:11;;;;;;;13.70;3.83;;;;;;;;;;5094187;28;20093;-84
2024/01/03 11:48:01;;;;;;;16.58;3.72;;;;;;;;;;5078373;28;20038;-84
2024/01/03 11:50:45;;;;;;;18.20;3.67;;;;;;;;;;5094713;28;20050;-84
2024/01/03 11:53:30;;;;;;;17.25;3.22;;;;;;;;;;5083269;28;20043;-84
2024/01/03 11:56:33;;;;;;;23.80;4.53;;;;;;;;;;5093671;28;20116;-83
2024/01/03 11:59:21;;;;;;;20.05;3.03;;;;;;;;;;5092681;28;20900;-83
2024/01/03 12:02:07;;;;;;;18.17;3.30;;;;;;;;;;5078551;28;20098;-84
2024/01/03 12:05:01;;;;;;;17.90;3.42;;;;;;;;;;5067401;28;20054;-84
2024/01/03 12:07:45;;;;;;;13.55;2.70;;;;;;;;;;5079173;28;20499;-83
2024/01/03 12:10:30;;;;;;;21.67;3.28;;;;;;;;;;5093439;28;20042;-84
2024/01/03 12:13:15;;;;;;;21.95;3.28;;;;;;;;;;5078460;28;20092;-83
2024/01/03 12:16:00;;;;;;;22.45;4.22;;;;;;;;;;5092821;28;20511;-85
2024/01/03 12:18:49;;;;;;;23.77;3.65;;;;;;;;;;5092025;28;20043;-83
2024/01/03 12:21:34;;;;;;;21.27;3.92;;;;;;;;;;5071020;28;20116;-84
2024/01/03 12:24:18;;;;;;;17.83;3.92;;;;;;;;;;5081552;28;20066;-84
2024/01/03 12:27:03;;;;;;;21.27;3.15;;;;;;;;;;5093063;28;20035;-85
2024/01/03 12:29:48;;;;;;;18.15;3.67;;;;;;;;;;5093880;28;20106;-83
2024/01/03 12:32:35;;;;;;;19.98;2.53;;;;;;;;;;5082592;28;20047;-83
2024/01/03 12:35:20;;;;;;;22.38;3.15;;;;;;;;;;5064458;28;20043;-83
2024/01/03 12:38:05;;;;;;;21.00;4.20;;;;;;;;;;5093031;28;20085;-84
2024/01/03 12:40:49;;;;;;;17.38;3.10;;;;;;;;;;5094034;28;20047;-83
2024/01/03 12:43:34;;;;;;;13.32;2.92;;;;;;;;;;5078468;28;20042;-84
2024/01/03 12:46:19;;;;;;;18.33;2.75;;;;;;;;;;5076803;28;20055;-83
2024/01/03 12:49:03;;;;;;;14.82;2.92;;;;;;;;;;5093390;28;20397;-84
2024/01/03 12:51:48;;;;;;;21.13;3.10;;;;;;;;;;5066759;28;20058;-83
2024/01/03 12:54:33;;;;;;;14.38;2.72;;;;;;;;;;5092887;28;20042;-83
2024/01/03 12:57:17;;;;;;;11.52;2.72;;;;;;;;;;5092200;28;20043;-84
2024/01/03 13:00:02;;;;;;;19.63;3.53;;;;;;;;;;5067415;28;20047;-84
2024/01/03 13:02:47;;;;;;;21.75;3.70;;;;;;;;;;5092657;28;20043;-85
2024/01/03 13:05:31;;;;;;;14.73;3.30;;;;;;;;;;5093096;28;20051;-84
2024/01/03 13:08:16;;;;;;;18.63;3.17;;;;;;;;;;5081466;28;20408;-84
2024/01/03 13:11:00;;;;;;;11.27;2.72;;;;;;;;;;5077634;28;20581;-84
2024/01/03 13:13:47;;;;;;;21.13;2.85;;;;;;;;;;5092639;28;20495;-84
2024/01/03 13:16:31;;;;;;;20.10;3.47;;;;;;;;;;5077632;28;20074;-84
2024/01/03 13:19:16;;;;;;;23.83;3.47;;;;;;;;;;5092387;28;20050;-83
2024/01/03 13:22:02;;;;;;;19.80;3.03;;;;;;;;;;5092636;28;20062;-84
2024/01/03 13:24:47;;;;;;;16.92;3.75;;;;;;;;;;5077732;28;20035;-84
2024/01/03 13:27:32;;;;;;;16.50;2.22;;;;;;;;;;5076310;28;20051;-84
2024/01/03 13:30:17;;;;;;;18.88;2.78;;;;;;;;;;5091664;28;20039;-84
2024/01/03 13:33:02;;;;;;;18.52;2.50;;;;;;;;;;5092736;28;20054;-83
2024/01/03 13:35:46;;;;;;;12.85;2.78;;;;;;;;;;5072837;28;20040;-84
2024/01/03 13:38:31;;;;;;;31.05;3.72;;;;;;;;;;5090293;28;20279;-84
2024/01/03 13:41:15;;;;;;;18.17;2.72;;;;;;;;;;5091605;28;20140;-84
2024/01/03 13:44:00;;;;;;;18.25;2.97;;;;;;;;;;5092416;28;20142;-84
2024/01/03 13:46:45;;;;;;;13.70;2.75;;;;;;;;;;5091682;28;20127;-84
2024/01/03 13:49:29;;;;;;;17.75;2.67;;;;;;;;;;5089466;28;20135;-84
2024/01/03 13:52:15;;;;;;;22.88;3.35;;;;;;;;;;5068650;28;20036;-85
2024/01/03 13:55:01;;;;;;;20.85;3.63;;;;;;;;;;5051025;28;20114;-84
2024/01/03 13:57:45;;;;;;;19.58;2.92;;;;;;;;;;5091598;28;20043;-84
2024/01/03 14:00:30;;;;;;;18.83;2.78;;;;;;;;;;5091588;28;20039;-84
2024/01/03 14:03:15;;;;;;;15.27;2.95;;;;;;;;;;5058176;28;20040;-85
2024/01/03 14:06:02;;;;;;;20.73;3.75;;;;;;;;;;5090321;28;20108;-84
2024/01/03 14:08:47;;;;;;;13.38;2.95;;;;;;;;;;5092354;28;20039;-84
2024/01/03 14:11:33;;;;;;;9.70;2.60;;;;;;;;;;5065477;28;20063;-84
2024/01/03 14:14:17;;;;;;;15.95;2.80;;;;;;;;;;5075707;28;20043;-84
2024/01/03 14:17:04;;;;;;;16.38;2.95;;;;;;;;;;5091772;28;20043;-84
2024/01/03 14:19:48;;;;;;;13.52;2.75;;;;;;;;;;5091828;28;20059;-83
2024/01/03 14:22:33;;;;;;;18.98;3.45;;;;;;;;;;5091179;28;20495;-83
2024/01/03 14:25:21;;;;;;;11.65;2.90;;;;;;;;;;5075387;28;20515;-85
2024/01/03 14:28:06;;;;;;;17.13;3.13;;;;;;;;;;5075941;28;20099;-83
2024/01/03 14:30:52;;;;;;;19.33;3.92;;;;;;;;;;5080481;28;20039;-84
2024/01/03 14:33:36;;;;;;;17.10;3.28;;;;;;;;;;5090647;28;20097;-84
2024/01/03 14:36:21;;;;;;;18.83;2.42;;;;;;;;;;5090945;28;20460;-84
2024/01/03 14:39:08;;;;;;;20.95;3.10;;;;;;;;;;5065861;28;20063;-83
2024/01/03 14:41:53;;;;;;;16.50;3.40;;;;;;;;;;5075848;28;20070;-83
2024/01/03 14:44:38;;;;;;;14.82;2.60;;;;;;;;;;5090524;28;20097;-83
2024/01/03 14:47:23;;;;;;;11.30;2.20;;;;;;;;;;5075434;28;20046;-83
2024/01/03 14:50:07;;;;;;;10.48;2.35;;;;;;;;;;5091478;28;20035;-83
2024/01/03 14:52:52;;;;;;;14.07;2.22;;;;;;;;;;5090700;28;20039;-83
2024/01/03 14:55:36;;;;;;;8.18;1.50;;;;;;;;;;5075930;28;20086;-83
2024/01/03 14:58:22;;;;;;;5.78;1.30;;;;;;;;;;5056227;28;20512;-83
2024/01/03 15:01:07;;;;;;;3.25;0.95;;;;;;;;;;5074438;28;20039;-83
2024/01/03 15:03:53;;;;;;;5.88;1.02;;;;;;;;;;5090401;28;20530;-83
2024/01/03 15:06:38;;;;;;;4.65;1.90;;;;;;;;;;5066076;28;20112;-83
2024/01/03 15:09:23;;;;;;;5.22;1.63;;;;;;;;;;5090221;28;20070;-83
2024/01/03 15:12:08;;;;;;;8.27;1.77;;;;;;;;;;5090496;28;20066;-83
2024/01/03 15:14:53;;;;;;;7.88;1.85;;;;;;;;;;5061995;28;20456;-82
2024/01/03 15:17:37;;;;;;;6.32;1.55;;;;;;;;;;5062832;28;20039;-82
2024/01/03 15:20:22;;;;;;;4.78;2.08;;;;;;;;;;5075564;28;20085;-83
2024/01/03 15:23:08;;;;;;;5.97;1.38;;;;;;;;;;5091288;28;20039;-82
2024/01/03 15:25:54;;;;;;;10.45;1.60;;;;;;;;;;5090880;28;20487;-82
2024/01/03 15:28:39;;;;;;;6.65;1.35;;;;;;;;;;5072059;28;20590;-82
2024/01/03 15:31:23;;;;;;;7.88;2.13;;;;;;;;;;5084884;28;20120;-83
2024/01/03 15:34:08;;;;;;;7.55;1.58;;;;;;;;;;5080975;28;20035;-82
2024/01/03 15:36:52;;;;;;;8.23;1.55;;;;;;;;;;5097210;28;20043;-82
2024/01/03 15:39:37;;;;;;;12.70;2.00;;;;;;;;;;5074088;28;20038;-82
2024/01/03 15:42:22;;;;;;;15.05;2.65;;;;;;;;;;5090622;28;20388;-82
2024/01/03 15:45:09;;;;;;;10.40;1.85;;;;;;;;;;5075364;28;20082;-82
2024/01/03 15:47:55;;;;;;;12.25;2.50;;;;;;;;;;5075459;28;20047;-82
2024/01/03 15:50:40;;;;;;;10.77;2.50;;;;;;;;;;5090265;28;20035;-82
2024/01/03 15:53:25;;;;;;;5.72;1.50;;;;;;;;;;5066924;28;20043;-82
2024/01/03 15:56:11;;;;;;;11.30;1.65;;;;;;;;;;5093112;28;20495;-82
2024/01/03 15:58:56;;;;;;;8.98;1.52;;;;;;;;;;5087540;28;20078;-83
2024/01/03 16:01:41;;;;;;;6.60;1.38;;;;;;;;;;5070581;28;20069;-82
2024/01/03 16:04:25;;;;;;;5.70;1.58;;;;;;;;;;5092214;28;20055;-82
2024/01/03 16:07:11;;;;;;;5.03;1.70;;;;;;;;;;5094235;28;20043;-82
2024/01/03 16:09:55;;;;;;;8.43;2.03;;;;;;;;;;5058929;28;20162;-82
2024/01/03 16:12:40;;;;;;;8.35;1.80;;;;;;;;;;5091516;28;20438;-82
2024/01/03 16:15:27;;;;;;;9.27;1.92;;;;;;;;;;5077960;28;20089;-82
2024/01/03 16:18:12;;;;;;;10.77;2.20;;;;;;;;;;5093863;28;20120;-82
2024/01/03 16:20:57;;;;;;;10.55;2.05;;;;;;;;;;5078079;28;20035;-83